Portada
METAR-TAF:

METAR-TAF

Aeropuertos :

Orange, Francia

latitud: 44-08N, longitud: 004-50E, altitud: 60 m

Observación

El informe se hizo hace 15 minutos, a las 02:00 UTC
Viento 2 kt con dirección variable
Temperatura 4°C
Humedad 87%
Presión 1030 hPa
Visibilidad 10 km o más
sin nubes por debajo de 1500 m y sin presencia de cumulonimbus.

METAR: LFMO 020200Z AUTO VRB02KT CAVOK 04/02 Q1030 TEMPO 4000 BR

Hora: 03:15 (02:15 UTC)

Pronóstico

El informe se hizo hace 6 horas y 15 minutos, a las 20:00 UTC
Pronóstico válido del 01 a las 21 UTC al 02 a las 21 UTC
Viento 3 kt con dirección variable
Visibilidad 10 km o más
sin nubes por debajo de 1500 m y sin presencia de cumulonimbus.
Probabilidad 30% :
Temporalmente
del 02 a las 03 UTC al 02 a las 07 UTC
Visibilidad: 4000 m
neblina

TAF: LFMO 012000Z 0121/0221 VRB03KT CAVOK TX18/0215Z TN01/0206Z PROB30 TEMPO 0203/0207 4000 BR

Observaciones y pronósticos meteorológicos de más de 4000 aeropuertos (mensajes METAR y TAF).

Los puntos amarillos y rojos representan las estaciones disponibles.

Ponga el ratón en el punto deseado para ver el nombre de la estación.

Haga clic para ver las observaciones y los pronósticos meteorológicos.

Para cambiar el mapa : haga clic en los botones verdes con una cruz de color negro para hacer un zoom, en el botón verde con un guión para alejar o en las flechas verdes para mapas adyacentes.


METAR-TAF: